Thunder radar more information blitzortung!


avis per Pluja more information rain snow radar


Visita la nostra xarxa de llocs de meteo:

Template documentation
and downloads

And another site



Rain From: 18-10-2018 10:00 Until: 16:59 warning for: Rain Level: Yellow info button

Pagina Historial Weather Underground text

Diari Resum Setembre 27, 2017 Unitats:  Tant    Imperial   Mètric
« Previous Dia
SegĂźent Dia »
Diari Setmana Mensual Anual Personalitzada
  Maxima: Minima: Media:
Temperatura: TemperatureC °F /  -17.8 °C 15.0 °F /  -9.4 °C 21 °F /  -6.1 °C
Punt de rosada: DewpointC °F /  -17.8 °C 11.9 °F /  -11.2 °C 13.7 °F /  -10.2 °C
Humitat: Humidity % 50 % 64 %
Wind Speed: WindSpeedKMH mph /  0 km/h - 5.8 mph /  9.3 km/h
RĂ fegues de vent: WindSpeedGustKMH mph /  0 km/h - -
Vent:- - SSW
Pression baro: PressurehPa in /  0 hPa 1019.9 in /  34533.8 hPa -
Precipitacions: 0.0 in /  0 mm    
Historical Graphs
 
 
Dades de taula per Setembre 27, 2017
Temps Temperatura Punt de rosada Pression baro Vent Wind Speed RĂ fegues de vent Humitat Rainfall Rate (Hourly)
TemperatureC °F /  -17.8 °C DewpointC °F /  -17.8 °C PressurehPa in /  0 hPa Calm     Humidity % HourlyPrecipMM in /  0 mm
00:02 19.2 °F /  -7.1 °C 13.6 °F /  -10.2 °C 1022.9 in /  34635.4 hPa WSW 3.7 mph /  6 km/h 3.7 mph /  6 km/h 70 % 0.0 in /  0 mm
00:05 16.3 °F /  -8.7 °C 12.4 °F /  -10.9 °C 1021.9 in /  34601.5 hPa Calm   3.2 mph /  5.1 km/h 78 % 0.0 in /  0 mm
00:07 19.2 °F /  -7.1 °C 13.6 °F /  -10.2 °C 1022.9 in /  34635.4 hPa WSW 1.9 mph /  3.1 km/h   70 % 0.0 in /  0 mm
00:12 19.2 °F /  -7.1 °C 13.6 °F /  -10.2 °C 1022.9 in /  34635.4 hPa SW 2.3 mph /  3.7 km/h 2.3 mph /  3.7 km/h 70 % 0.0 in /  0 mm
00:15 16.2 °F /  -8.8 °C 12.6 °F /  -10.8 °C 1022.9 in /  34635.4 hPa Calm     79 % 0.0 in /  0 mm
00:25 16.1 °F /  -8.8 °C 12.4 °F /  -10.9 °C 1022.9 in /  34635.4 hPa Calm     79 % 0.0 in /  0 mm
00:35 15.9 °F /  -8.9 °C 12.3 °F /  -10.9 °C 1022.9 in /  34635.4 hPa South 1.6 mph /  2.6 km/h 3.2 mph /  5.1 km/h 79 % 0.0 in /  0 mm
00:45 15.7 °F /  -9.1 °C 12.1 °F /  -11.1 °C 1022.9 in /  34635.4 hPa SW 3.2 mph /  5.1 km/h 3.2 mph /  5.1 km/h 79 % 0.0 in /  0 mm
00:55 15.6 °F /  -9.1 °C 12.2 °F /  -11 °C 1022.9 in /  34635.4 hPa Calm     80 % 0.0 in /  0 mm
01:05 15.5 °F /  -9.2 °C 12.3 °F /  -10.9 °C 1022.9 in /  34635.4 hPa Calm     81 % 0.0 in /  0 mm
01:15 15.4 °F /  -9.2 °C 12.2 °F /  -11 °C 1022.9 in /  34635.4 hPa Calm   1.6 mph /  2.6 km/h 81 % 0.0 in /  0 mm
01:25 15.4 °F /  -9.2 °C 12.3 °F /  -10.9 °C 1022.9 in /  34635.4 hPa Calm     82 % 0.0 in /  0 mm
01:35 15.3 °F /  -9.3 °C 12.2 °F /  -11 °C 1022.9 in /  34635.4 hPa Calm     82 % 0.0 in /  0 mm
01:45 15.2 °F /  -9.3 °C 12.2 °F /  -11 °C 1022.9 in /  34635.4 hPa WSW 1.6 mph /  2.6 km/h 3.2 mph /  5.1 km/h 82 % 0.0 in /  0 mm
01:55 15.0 °F /  -9.4 °C 11.9 °F /  -11.2 °C 1021.9 in /  34601.5 hPa Calm   1.6 mph /  2.6 km/h 82 % 0.0 in /  0 mm
02:05 15.0 °F /  -9.4 °C 12.1 °F /  -11.1 °C 1021.9 in /  34601.5 hPa SW 1.6 mph /  2.6 km/h 3.2 mph /  5.1 km/h 83 % 0.0 in /  0 mm
02:15 15.1 °F /  -9.4 °C 12.2 °F /  -11 °C 1021.9 in /  34601.5 hPa Calm     83 % 0.0 in /  0 mm
02:25 15.0 °F /  -9.4 °C 12.1 °F /  -11.1 °C 1022.9 in /  34635.4 hPa Calm     83 % 0.0 in /  0 mm
02:35 15.0 °F /  -9.4 °C 12.1 °F /  -11.1 °C 1022.9 in /  34635.4 hPa Calm     83 % 0.0 in /  0 mm
02:45 15.0 °F /  -9.4 °C 12.1 °F /  -11.1 °C 1022.9 in /  34635.4 hPa Calm     83 % 0.0 in /  0 mm
02:55 15.0 °F /  -9.4 °C 12.3 °F /  -10.9 °C 1022.9 in /  34635.4 hPa Calm   1.6 mph /  2.6 km/h 84 % 0.0 in /  0 mm
03:05 15.0 °F /  -9.4 °C 12.3 °F /  -10.9 °C 1022.9 in /  34635.4 hPa Calm     84 % 0.0 in /  0 mm
03:15 15.1 °F /  -9.4 °C 12.4 °F /  -10.9 °C 1022.9 in /  34635.4 hPa NE 1.6 mph /  2.6 km/h 1.6 mph /  2.6 km/h 84 % 0.0 in /  0 mm
03:25 15.4 °F /  -9.2 °C 12.7 °F /  -10.7 °C 1022.9 in /  34635.4 hPa Calm     84 % 0.0 in /  0 mm
03:35 15.5 °F /  -9.2 °C 12.8 °F /  -10.7 °C 1022.9 in /  34635.4 hPa NE 1.6 mph /  2.6 km/h 3.2 mph /  5.1 km/h 84 % 0.0 in /  0 mm
03:45 15.6 °F /  -9.1 °C 12.9 °F /  -10.6 °C 1023.9 in /  34669.3 hPa Calm   1.6 mph /  2.6 km/h 84 % 0.0 in /  0 mm
03:55 15.5 °F /  -9.2 °C 12.6 °F /  -10.8 °C 1023.9 in /  34669.3 hPa Calm     83 % 0.0 in /  0 mm
04:05 15.3 °F /  -9.3 °C 12.4 °F /  -10.9 °C 1023.9 in /  34669.3 hPa NE 1.6 mph /  2.6 km/h 3.2 mph /  5.1 km/h 83 % 0.0 in /  0 mm
04:15 15.3 °F /  -9.3 °C 12.4 °F /  -10.9 °C 1023.9 in /  34669.3 hPa Calm   1.6 mph /  2.6 km/h 83 % 0.0 in /  0 mm
04:25 15.4 °F /  -9.2 °C 12.5 °F /  -10.8 °C 1023.9 in /  34669.3 hPa WSW 1.6 mph /  2.6 km/h 3.2 mph /  5.1 km/h 83 % 0.0 in /  0 mm
04:35 15.8 °F /  -9 °C 13.1 °F /  -10.5 °C 1023.9 in /  34669.3 hPa Calm   1.6 mph /  2.6 km/h 84 % 0.0 in /  0 mm
04:45 16.0 °F /  -8.9 °C 13.1 °F /  -10.5 °C 1023.9 in /  34669.3 hPa ENE 3.2 mph /  5.1 km/h 4.8 mph /  7.7 km/h 83 % 0.0 in /  0 mm
04:55 17.2 °F /  -8.2 °C 14.1 °F /  -9.9 °C 1023.9 in /  34669.3 hPa ENE 3.2 mph /  5.1 km/h 3.2 mph /  5.1 km/h 82 % 0.0 in /  0 mm
05:05 18.0 °F /  -7.8 °C 14.5 °F /  -9.7 °C 1023.9 in /  34669.3 hPa Calm   3.2 mph /  5.1 km/h 80 % 0.0 in /  0 mm
05:15 18.3 °F /  -7.6 °C 14.4 °F /  -9.8 °C 1023.9 in /  34669.3 hPa ENE 1.6 mph /  2.6 km/h 3.2 mph /  5.1 km/h 78 % 0.0 in /  0 mm
05:25 19.2 °F /  -7.1 °C 15.1 °F /  -9.4 °C 1023.9 in /  34669.3 hPa Calm   3.2 mph /  5.1 km/h 77 % 0.0 in /  0 mm
05:35 19.6 °F /  -6.9 °C 15.3 °F /  -9.3 °C 1023.9 in /  34669.3 hPa South 1.6 mph /  2.6 km/h 3.2 mph /  5.1 km/h 76 % 0.0 in /  0 mm
05:45 20.3 °F /  -6.5 °C 15.3 °F /  -9.3 °C 1023.9 in /  34669.3 hPa SSW 1.6 mph /  2.6 km/h 3.2 mph /  5.1 km/h 73 % 0.0 in /  0 mm
05:55 20.8 °F /  -6.2 °C 15.6 °F /  -9.1 °C 1022.9 in /  34635.4 hPa South 1.6 mph /  2.6 km/h 4.8 mph /  7.7 km/h 72 % 0.0 in /  0 mm
06:05 21.4 °F /  -5.9 °C 15.9 °F /  -8.9 °C 1022.9 in /  34635.4 hPa SSW 3.2 mph /  5.1 km/h 4.8 mph /  7.7 km/h 71 % 0.0 in /  0 mm
06:15 21.6 °F /  -5.8 °C 15.9 °F /  -8.9 °C 1023.9 in /  34669.3 hPa SW 3.2 mph /  5.1 km/h 6.4 mph /  10.3 km/h 70 % 0.0 in /  0 mm
11:15 21.8 °F /  -5.7 °C 15.8 °F /  -9 °C 1023.9 in /  34669.3 hPa West 5.8 mph /  9.3 km/h 5.8 mph /  9.3 km/h 69 % 0.0 in /  0 mm
11:20 21.9 °F /  -5.6 °C 15.9 °F /  -8.9 °C 1023.9 in /  34669.3 hPa South 5.6 mph /  9 km/h 5.6 mph /  9 km/h 69 % 0.0 in /  0 mm
11:25 22.2 °F /  -5.4 °C 15.8 °F /  -9 °C 1023.9 in /  34669.3 hPa South 6.1 mph /  9.8 km/h 6.1 mph /  9.8 km/h 67 % 0.0 in /  0 mm
11:30 22.3 °F /  -5.4 °C 15.7 °F /  -9.1 °C 1023.9 in /  34669.3 hPa WSW 7.4 mph /  11.9 km/h 7.4 mph /  11.9 km/h 66 % 0.0 in /  0 mm
11:35 23.0 °F /  -5 °C 15.8 °F /  -9 °C 1023.9 in /  34669.3 hPa SSW 3.9 mph /  6.3 km/h 3.9 mph /  6.3 km/h 64 % 0.0 in /  0 mm
11:40 23.0 °F /  -5 °C 16.1 °F /  -8.8 °C 1023.9 in /  34669.3 hPa ENE 3.7 mph /  6 km/h 3.7 mph /  6 km/h 65 % 0.0 in /  0 mm
11:45 23.3 °F /  -4.8 °C 16.1 °F /  -8.8 °C 1023.9 in /  34669.3 hPa WSW 4.7 mph /  7.6 km/h 4.7 mph /  7.6 km/h 64 % 0.0 in /  0 mm
11:50 23.4 °F /  -4.8 °C 15.9 °F /  -8.9 °C 1023.9 in /  34669.3 hPa South 7.4 mph /  11.9 km/h 7.4 mph /  11.9 km/h 63 % 0.0 in /  0 mm
11:55 23.3 °F /  -4.8 °C 15.8 °F /  -9 °C 1023.9 in /  34669.3 hPa WSW 9.3 mph /  15 km/h 9.3 mph /  15 km/h 63 % 0.0 in /  0 mm
12:00 23.2 °F /  -4.9 °C 15.5 °F /  -9.2 °C 1023.9 in /  34669.3 hPa West 5.6 mph /  9 km/h 5.6 mph /  9 km/h 62 % 0.0 in /  0 mm
12:05 23.9 °F /  -4.5 °C 15.7 °F /  -9.1 °C 1023.9 in /  34669.3 hPa SSW 5.6 mph /  9 km/h 5.6 mph /  9 km/h 60 % 0.0 in /  0 mm
12:10 24.7 °F /  -4.1 °C 15.6 °F /  -9.1 °C 1023.9 in /  34669.3 hPa SSE 7.4 mph /  11.9 km/h 7.4 mph /  11.9 km/h 57 % 0.0 in /  0 mm
12:11 24.7 °F /  -4.1 °C 15.6 °F /  -9.1 °C 1023.9 in /  34669.3 hPa South 7.4 mph /  11.9 km/h 7.4 mph /  11.9 km/h 57 % 0.0 in /  0 mm
12:16 24.2 °F /  -4.3 °C 14.9 °F /  -9.5 °C 1023.9 in /  34669.3 hPa SSE 16.1 mph /  25.9 km/h 16.1 mph /  25.9 km/h 56 % 0.0 in /  0 mm
12:21 24.3 °F /  -4.3 °C 15.5 °F /  -9.2 °C 1023.9 in /  34669.3 hPa West 3.7 mph /  6 km/h 3.7 mph /  6 km/h 58 % 0.0 in /  0 mm
12:26 24.3 °F /  -4.3 °C 15.5 °F /  -9.2 °C 1023.9 in /  34669.3 hPa South 5.6 mph /  9 km/h 5.6 mph /  9 km/h 58 % 0.0 in /  0 mm
12:31 24.4 °F /  -4.2 °C 15.1 °F /  -9.4 °C 1023.9 in /  34669.3 hPa South 11.1 mph /  17.9 km/h 11.1 mph /  17.9 km/h 56 % 0.0 in /  0 mm
12:36 24.3 °F /  -4.3 °C 14.9 °F /  -9.5 °C 1022.9 in /  34635.4 hPa West 11.1 mph /  17.9 km/h 11.1 mph /  17.9 km/h 56 % 0.0 in /  0 mm
12:41 24.0 °F /  -4.4 °C 14.7 °F /  -9.6 °C 1022.9 in /  34635.4 hPa SW 7.4 mph /  11.9 km/h 7.4 mph /  11.9 km/h 56 % 0.0 in /  0 mm
12:46 24.1 °F /  -4.4 °C 14.8 °F /  -9.6 °C 1022.9 in /  34635.4 hPa SW 5.6 mph /  9 km/h 5.6 mph /  9 km/h 56 % 0.0 in /  0 mm
12:51 24.5 °F /  -4.2 °C 15.2 °F /  -9.3 °C 1022.9 in /  34635.4 hPa WNW 5.6 mph /  9 km/h 5.6 mph /  9 km/h 56 % 0.0 in /  0 mm
12:56 24.9 °F /  -3.9 °C 14.9 °F /  -9.5 °C 1022.9 in /  34635.4 hPa SW 3.7 mph /  6 km/h 3.7 mph /  6 km/h 54 % 0.0 in /  0 mm
13:01 25.3 °F /  -3.7 °C 15.1 °F /  -9.4 °C 1022.9 in /  34635.4 hPa SSE 5.8 mph /  9.3 km/h 5.8 mph /  9.3 km/h 53 % 0.0 in /  0 mm
13:06 25.4 °F /  -3.7 °C 15.1 °F /  -9.4 °C 1022.9 in /  34635.4 hPa ESE 9.3 mph /  15 km/h 9.3 mph /  15 km/h 53 % 0.0 in /  0 mm
13:11 25.6 °F /  -3.6 °C 14.7 °F /  -9.6 °C 1022.9 in /  34635.4 hPa SE 7.4 mph /  11.9 km/h 7.4 mph /  11.9 km/h 51 % 0.0 in /  0 mm
13:16 25.8 °F /  -3.4 °C 14.9 °F /  -9.5 °C 1022.9 in /  34635.4 hPa SE 5.6 mph /  9 km/h 5.6 mph /  9 km/h 51 % 0.0 in /  0 mm
13:21 26.2 °F /  -3.2 °C 14.9 °F /  -9.5 °C 1021.9 in /  34601.5 hPa SW 10.0 mph /  16.1 km/h 10.0 mph /  16.1 km/h 50 % 0.0 in /  0 mm
13:26 25.5 °F /  -3.6 °C 14.6 °F /  -9.7 °C 1021.9 in /  34601.5 hPa SSW 7.6 mph /  12.2 km/h 7.6 mph /  12.2 km/h 51 % 0.0 in /  0 mm
13:27 25.5 °F /  -3.6 °C 14.3 °F /  -9.8 °C 1021.9 in /  34601.5 hPa SE 5.3 mph /  8.5 km/h 5.3 mph /  8.5 km/h 50 % 0.0 in /  0 mm
13:32 25.3 °F /  -3.7 °C 14.4 °F /  -9.8 °C 1022.9 in /  34635.4 hPa South 7.4 mph /  11.9 km/h 7.4 mph /  11.9 km/h 51 % 0.0 in /  0 mm
13:37 25.0 °F /  -3.9 °C 14.2 °F /  -9.9 °C 1022.9 in /  34635.4 hPa WNW 7.4 mph /  11.9 km/h 7.4 mph /  11.9 km/h 51 % 0.0 in /  0 mm
13:42 24.6 °F /  -4.1 °C 14.1 °F /  -9.9 °C 1022.9 in /  34635.4 hPa SSW 5.6 mph /  9 km/h 5.6 mph /  9 km/h 52 % 0.0 in /  0 mm
13:47 24.5 °F /  -4.2 °C 14.0 °F /  -10 °C 1021.9 in /  34601.5 hPa South 3.7 mph /  6 km/h 3.7 mph /  6 km/h 52 % 0.0 in /  0 mm
13:52 24.5 °F /  -4.2 °C 14.0 °F /  -10 °C 1021.9 in /  34601.5 hPa SSW 3.9 mph /  6.3 km/h 3.9 mph /  6.3 km/h 52 % 0.0 in /  0 mm
13:57 24.4 °F /  -4.2 °C 14.2 °F /  -9.9 °C 1021.9 in /  34601.5 hPa SSE 3.7 mph /  6 km/h 3.7 mph /  6 km/h 53 % 0.0 in /  0 mm
14:02 24.2 °F /  -4.3 °C 14.0 °F /  -10 °C 1022.9 in /  34635.4 hPa WSW 7.4 mph /  11.9 km/h 7.4 mph /  11.9 km/h 53 % 0.0 in /  0 mm
14:07 24.1 °F /  -4.4 °C 13.6 °F /  -10.2 °C 1022.9 in /  34635.4 hPa South 3.9 mph /  6.3 km/h 3.9 mph /  6.3 km/h 52 % 0.0 in /  0 mm
14:12 24.0 °F /  -4.4 °C 13.8 °F /  -10.1 °C 1022.9 in /  34635.4 hPa West 3.7 mph /  6 km/h 3.7 mph /  6 km/h 53 % 0.0 in /  0 mm
14:17 24.0 °F /  -4.4 °C 13.8 °F /  -10.1 °C 1021.9 in /  34601.5 hPa ESE 3.2 mph /  5.1 km/h 3.5 mph /  5.6 km/h 53 % 0.0 in /  0 mm
14:22 23.6 °F /  -4.7 °C 14.1 °F /  -9.9 °C 1021.9 in /  34601.5 hPa ESE 9.7 mph /  15.6 km/h 9.7 mph /  15.6 km/h 55 % 0.0 in /  0 mm
14:27 23.2 °F /  -4.9 °C 13.9 °F /  -10.1 °C 1021.9 in /  34601.5 hPa ENE 11.1 mph /  17.9 km/h 11.1 mph /  17.9 km/h 56 % 0.0 in /  0 mm
14:32 22.8 °F /  -5.1 °C 13.6 °F /  -10.2 °C 1022.9 in /  34635.4 hPa ESE 14.8 mph /  23.8 km/h 14.8 mph /  23.8 km/h 56 % 0.0 in /  0 mm
14:37 22.8 °F /  -5.1 °C 13.8 °F /  -10.1 °C 1022.9 in /  34635.4 hPa East 11.9 mph /  19.2 km/h 11.9 mph /  19.2 km/h 57 % 0.0 in /  0 mm
14:42 22.6 °F /  -5.2 °C 13.9 °F /  -10.1 °C 1022.9 in /  34635.4 hPa East 11.1 mph /  17.9 km/h 11.1 mph /  17.9 km/h 58 % 0.0 in /  0 mm
14:47 22.6 °F /  -5.2 °C 13.9 °F /  -10.1 °C 1021.9 in /  34601.5 hPa East 9.3 mph /  15 km/h 9.3 mph /  15 km/h 58 % 0.0 in /  0 mm
14:52 22.5 °F /  -5.3 °C 13.8 °F /  -10.1 °C 1021.9 in /  34601.5 hPa East 11.1 mph /  17.9 km/h 11.1 mph /  17.9 km/h 58 % 0.0 in /  0 mm
14:57 22.4 °F /  -5.3 °C 13.7 °F /  -10.2 °C 1021.9 in /  34601.5 hPa ESE 11.1 mph /  17.9 km/h 11.1 mph /  17.9 km/h 58 % 0.0 in /  0 mm
15:02 22.6 °F /  -5.2 °C 14.2 °F /  -9.9 °C 1021.9 in /  34601.5 hPa ESE 9.3 mph /  15 km/h 9.3 mph /  15 km/h 59 % 0.0 in /  0 mm
15:07 22.9 °F /  -5.1 °C 14.4 °F /  -9.8 °C 1021.9 in /  34601.5 hPa East 7.4 mph /  11.9 km/h 7.4 mph /  11.9 km/h 59 % 0.0 in /  0 mm
15:12 22.9 °F /  -5.1 °C 14.4 °F /  -9.8 °C 1021.9 in /  34601.5 hPa ESE 13.0 mph /  20.9 km/h 13.0 mph /  20.9 km/h 59 % 0.0 in /  0 mm
15:17 22.7 °F /  -5.2 °C 14.3 °F /  -9.8 °C 1021.9 in /  34601.5 hPa ESE 11.1 mph /  17.9 km/h 11.1 mph /  17.9 km/h 59 % 0.0 in /  0 mm
15:22 22.9 °F /  -5.1 °C 14.2 °F /  -9.9 °C 1021.9 in /  34601.5 hPa ESE 9.3 mph /  15 km/h 9.3 mph /  15 km/h 58 % 0.0 in /  0 mm
15:27 23.5 °F /  -4.7 °C 14.5 °F /  -9.7 °C 1021.9 in /  34601.5 hPa SW 13.0 mph /  20.9 km/h 13.0 mph /  20.9 km/h 57 % 0.0 in /  0 mm
15:32 24.9 °F /  -3.9 °C 15.2 °F /  -9.3 °C 1021.9 in /  34601.5 hPa SSE 5.6 mph /  9 km/h 5.6 mph /  9 km/h 55 % 0.0 in /  0 mm
15:37 24.4 °F /  -4.2 °C 14.2 °F /  -9.9 °C 1021.9 in /  34601.5 hPa SSE 5.6 mph /  9 km/h 5.6 mph /  9 km/h 53 % 0.0 in /  0 mm
15:42 24.8 °F /  -4 °C 14.8 °F /  -9.6 °C 1021.9 in /  34601.5 hPa SW 11.1 mph /  17.9 km/h 11.1 mph /  17.9 km/h 54 % 0.0 in /  0 mm
15:47 25.3 °F /  -3.7 °C 15.1 °F /  -9.4 °C 1020.9 in /  34567.7 hPa SW 5.6 mph /  9 km/h 5.6 mph /  9 km/h 53 % 0.0 in /  0 mm
15:52 25.1 °F /  -3.8 °C 14.6 °F /  -9.7 °C 1020.9 in /  34567.7 hPa South 7.4 mph /  11.9 km/h 7.4 mph /  11.9 km/h 52 % 0.0 in /  0 mm
15:57 24.9 °F /  -3.9 °C 14.7 °F /  -9.6 °C 1020.9 in /  34567.7 hPa SW 9.3 mph /  15 km/h 9.3 mph /  15 km/h 53 % 0.0 in /  0 mm
16:02 25.4 °F /  -3.7 °C 14.8 °F /  -9.6 °C 1021.9 in /  34601.5 hPa South 9.3 mph /  15 km/h 9.3 mph /  15 km/h 52 % 0.0 in /  0 mm
16:07 25.1 °F /  -3.8 °C 14.3 °F /  -9.8 °C 1021.9 in /  34601.5 hPa South 14.8 mph /  23.8 km/h 14.8 mph /  23.8 km/h 51 % 0.0 in /  0 mm
16:12 25.1 °F /  -3.8 °C 14.3 °F /  -9.8 °C 1021.9 in /  34601.5 hPa West 13.0 mph /  20.9 km/h 13.0 mph /  20.9 km/h 51 % 0.0 in /  0 mm
16:17 24.6 °F /  -4.1 °C 14.1 °F /  -9.9 °C 1021.9 in /  34601.5 hPa WSW 9.3 mph /  15 km/h 9.3 mph /  15 km/h 52 % 0.0 in /  0 mm
16:22 25.0 °F /  -3.9 °C 14.2 °F /  -9.9 °C 1021.9 in /  34601.5 hPa South 11.1 mph /  17.9 km/h 11.1 mph /  17.9 km/h 51 % 0.0 in /  0 mm
16:27 25.1 °F /  -3.8 °C 14.3 °F /  -9.8 °C 1021.9 in /  34601.5 hPa SW 13.0 mph /  20.9 km/h 13.0 mph /  20.9 km/h 51 % 0.0 in /  0 mm
16:32 25.3 °F /  -3.7 °C 14.1 °F /  -9.9 °C 1020.9 in /  34567.7 hPa SW 11.1 mph /  17.9 km/h 11.1 mph /  17.9 km/h 50 % 0.0 in /  0 mm
16:37 25.3 °F /  -3.7 °C 14.1 °F /  -9.9 °C 1020.9 in /  34567.7 hPa SSW 5.6 mph /  9 km/h 5.6 mph /  9 km/h 50 % 0.0 in /  0 mm
16:42 25.3 °F /  -3.7 °C 14.1 °F /  -9.9 °C 1020.9 in /  34567.7 hPa SSW 20.4 mph /  32.8 km/h 20.4 mph /  32.8 km/h 50 % 0.0 in /  0 mm
16:47 25.0 °F /  -3.9 °C 13.8 °F /  -10.1 °C 1020.9 in /  34567.7 hPa SW 13.0 mph /  20.9 km/h 13.0 mph /  20.9 km/h 50 % 0.0 in /  0 mm
16:52 25.3 °F /  -3.7 °C 14.1 °F /  -9.9 °C 1020.9 in /  34567.7 hPa SW 9.3 mph /  15 km/h 9.3 mph /  15 km/h 50 % 0.0 in /  0 mm
16:57 25.0 °F /  -3.9 °C 13.8 °F /  -10.1 °C 1020.9 in /  34567.7 hPa SW 16.7 mph /  26.9 km/h 16.7 mph /  26.9 km/h 50 % 0.0 in /  0 mm
17:02 25.2 °F /  -3.8 °C 14.1 °F /  -9.9 °C 1020.9 in /  34567.7 hPa SSW 11.1 mph /  17.9 km/h 11.1 mph /  17.9 km/h 50 % 0.0 in /  0 mm
17:07 25.4 °F /  -3.7 °C 14.2 °F /  -9.9 °C 1020.9 in /  34567.7 hPa SW 9.3 mph /  15 km/h 9.3 mph /  15 km/h 50 % 0.0 in /  0 mm
17:12 25.0 °F /  -3.9 °C 13.8 °F /  -10.1 °C 1020.9 in /  34567.7 hPa WSW 14.8 mph /  23.8 km/h 14.8 mph /  23.8 km/h 50 % 0.0 in /  0 mm
17:17 25.0 °F /  -3.9 °C 13.8 °F /  -10.1 °C 1020.9 in /  34567.7 hPa SW 13.0 mph /  20.9 km/h 13.0 mph /  20.9 km/h 50 % 0.0 in /  0 mm
17:22 25.0 °F /  -3.9 °C 13.8 °F /  -10.1 °C 1020.9 in /  34567.7 hPa SSW 14.8 mph /  23.8 km/h 14.8 mph /  23.8 km/h 50 % 0.0 in /  0 mm
17:27 24.9 °F /  -3.9 °C 14.1 °F /  -9.9 °C 1020.9 in /  34567.7 hPa WSW 9.3 mph /  15 km/h 9.3 mph /  15 km/h 51 % 0.0 in /  0 mm
17:32 25.0 °F /  -3.9 °C 13.8 °F /  -10.1 °C 1020.9 in /  34567.7 hPa West 9.3 mph /  15 km/h 9.3 mph /  15 km/h 50 % 0.0 in /  0 mm
17:33 24.9 °F /  -3.9 °C 14.1 °F /  -9.9 °C 1020.9 in /  34567.7 hPa SSW 10.0 mph /  16.1 km/h 10.0 mph /  16.1 km/h 51 % 0.0 in /  0 mm
17:38 24.7 °F /  -4.1 °C 13.9 °F /  -10.1 °C 1020.9 in /  34567.7 hPa SSW 13.0 mph /  20.9 km/h 13.0 mph /  20.9 km/h 51 % 0.0 in /  0 mm
17:43 24.4 °F /  -4.2 °C 13.6 °F /  -10.2 °C 1020.9 in /  34567.7 hPa WSW 13.0 mph /  20.9 km/h 13.0 mph /  20.9 km/h 51 % 0.0 in /  0 mm
17:48 24.4 °F /  -4.2 °C 13.6 °F /  -10.2 °C 1019.9 in /  34533.8 hPa SW 9.3 mph /  15 km/h 9.3 mph /  15 km/h 51 % 0.0 in /  0 mm
17:53 24.3 °F /  -4.3 °C 13.5 °F /  -10.3 °C 1019.9 in /  34533.8 hPa WSW 13.0 mph /  20.9 km/h 13.0 mph /  20.9 km/h 51 % 0.0 in /  0 mm
17:58 24.2 °F /  -4.3 °C 13.7 °F /  -10.2 °C 1019.9 in /  34533.8 hPa SSW 16.7 mph /  26.9 km/h 16.7 mph /  26.9 km/h 52 % 0.0 in /  0 mm
18:03 24.1 °F /  -4.4 °C 13.6 °F /  -10.2 °C 1019.9 in /  34533.8 hPa WSW 5.6 mph /  9 km/h 5.6 mph /  9 km/h 52 % 0.0 in /  0 mm
18:08 24.1 °F /  -4.4 °C 13.6 °F /  -10.2 °C 1019.9 in /  34533.8 hPa West 11.4 mph /  18.3 km/h 11.4 mph /  18.3 km/h 52 % 0.0 in /  0 mm
18:13 24.0 °F /  -4.4 °C 13.6 °F /  -10.2 °C 1019.9 in /  34533.8 hPa SW 13.0 mph /  20.9 km/h 13.0 mph /  20.9 km/h 52 % 0.0 in /  0 mm
18:18 23.8 °F /  -4.6 °C 13.3 °F /  -10.4 °C 1019.9 in /  34533.8 hPa South 9.3 mph /  15 km/h 9.3 mph /  15 km/h 52 % 0.0 in /  0 mm
18:23 23.4 °F /  -4.8 °C 13.0 °F /  -10.6 °C 1019.9 in /  34533.8 hPa SW 14.8 mph /  23.8 km/h 14.8 mph /  23.8 km/h 52 % 0.0 in /  0 mm
18:28 23.3 °F /  -4.8 °C 12.9 °F /  -10.6 °C 1019.9 in /  34533.8 hPa SW 9.3 mph /  15 km/h 9.3 mph /  15 km/h 52 % 0.0 in /  0 mm
18:33 23.3 °F /  -4.8 °C 12.9 °F /  -10.6 °C 1019.9 in /  34533.8 hPa SW 16.7 mph /  26.9 km/h 16.7 mph /  26.9 km/h 52 % 0.0 in /  0 mm
18:38 23.1 °F /  -4.9 °C 13.0 °F /  -10.6 °C 1019.9 in /  34533.8 hPa WSW 7.9 mph /  12.7 km/h 7.9 mph /  12.7 km/h 53 % 0.0 in /  0 mm
18:43 23.0 °F /  -5 °C 12.9 °F /  -10.6 °C 1019.9 in /  34533.8 hPa SSW 11.1 mph /  17.9 km/h 11.1 mph /  17.9 km/h 53 % 0.0 in /  0 mm
18:48 22.8 °F /  -5.1 °C 13.0 °F /  -10.6 °C 1019.9 in /  34533.8 hPa SW 9.3 mph /  15 km/h 9.3 mph /  15 km/h 54 % 0.0 in /  0 mm
18:53 22.8 °F /  -5.1 °C 13.0 °F /  -10.6 °C 1019.9 in /  34533.8 hPa SW 9.3 mph /  15 km/h 9.3 mph /  15 km/h 54 % 0.0 in /  0 mm
18:58 22.5 °F /  -5.3 °C 12.7 °F /  -10.7 °C 1019.9 in /  34533.8 hPa WSW 13.7 mph /  22 km/h 13.7 mph /  22 km/h 54 % 0.0 in /  0 mm
19:03 22.2 °F /  -5.4 °C 12.7 °F /  -10.7 °C 1020.9 in /  34567.7 hPa SSW 13.0 mph /  20.9 km/h 13.0 mph /  20.9 km/h 55 % 0.0 in /  0 mm
19:08 22.0 °F /  -5.6 °C 12.6 °F /  -10.8 °C 1020.9 in /  34567.7 hPa South 9.5 mph /  15.3 km/h 9.5 mph /  15.3 km/h 55 % 0.0 in /  0 mm
19:13 21.9 °F /  -5.6 °C 13.0 °F /  -10.6 °C 1020.9 in /  34567.7 hPa SW 14.5 mph /  23.3 km/h 14.5 mph /  23.3 km/h 57 % 0.0 in /  0 mm
19:18 21.6 °F /  -5.8 °C 12.7 °F /  -10.7 °C 1020.9 in /  34567.7 hPa WSW 9.3 mph /  15 km/h 9.3 mph /  15 km/h 57 % 0.0 in /  0 mm
19:23 21.5 °F /  -5.8 °C 12.9 °F /  -10.6 °C 1020.9 in /  34567.7 hPa SSE 5.6 mph /  9 km/h 5.6 mph /  9 km/h 58 % 0.0 in /  0 mm
19:28 21.4 °F /  -5.9 °C 12.8 °F /  -10.7 °C 1020.9 in /  34567.7 hPa SSW 9.3 mph /  15 km/h 9.3 mph /  15 km/h 58 % 0.0 in /  0 mm
19:33 21.1 °F /  -6.1 °C 12.8 °F /  -10.7 °C 1021.9 in /  34601.5 hPa SW 14.8 mph /  23.8 km/h 14.8 mph /  23.8 km/h 59 % 0.0 in /  0 mm
19:38 21.0 °F /  -6.1 °C 12.9 °F /  -10.6 °C 1021.9 in /  34601.5 hPa SSW 13.0 mph /  20.9 km/h 13.0 mph /  20.9 km/h 60 % 0.0 in /  0 mm
19:43 20.9 °F /  -6.2 °C 13.1 °F /  -10.5 °C 1021.9 in /  34601.5 hPa SW 9.3 mph /  15 km/h 9.3 mph /  15 km/h 61 % 0.0 in /  0 mm
19:48 20.7 °F /  -6.3 °C 12.9 °F /  -10.6 °C 1020.9 in /  34567.7 hPa WSW 9.3 mph /  15 km/h 9.3 mph /  15 km/h 61 % 0.0 in /  0 mm
19:53 20.6 °F /  -6.3 °C 13.1 °F /  -10.5 °C 1020.9 in /  34567.7 hPa SW 9.3 mph /  15 km/h 9.3 mph /  15 km/h 62 % 0.0 in /  0 mm
19:58 20.5 °F /  -6.4 °C 12.9 °F /  -10.6 °C 1020.9 in /  34567.7 hPa WSW 7.4 mph /  11.9 km/h 7.4 mph /  11.9 km/h 62 % 0.0 in /  0 mm
20:03 20.4 °F /  -6.4 °C 12.9 °F /  -10.6 °C 1021.9 in /  34601.5 hPa SSW 7.4 mph /  11.9 km/h 7.4 mph /  11.9 km/h 62 % 0.0 in /  0 mm
20:08 20.4 °F /  -6.4 °C 13.1 °F /  -10.5 °C 1021.9 in /  34601.5 hPa SSW 5.6 mph /  9 km/h 5.6 mph /  9 km/h 63 % 0.0 in /  0 mm
20:13 20.2 °F /  -6.6 °C 12.9 °F /  -10.6 °C 1021.9 in /  34601.5 hPa SW 9.3 mph /  15 km/h 9.3 mph /  15 km/h 63 % 0.0 in /  0 mm
20:18 20.1 °F /  -6.6 °C 13.1 °F /  -10.5 °C 1021.9 in /  34601.5 hPa SW 7.4 mph /  11.9 km/h 7.4 mph /  11.9 km/h 64 % 0.0 in /  0 mm
20:23 20.0 °F /  -6.7 °C 13.0 °F /  -10.6 °C 1021.9 in /  34601.5 hPa SW 6.9 mph /  11.1 km/h 6.9 mph /  11.1 km/h 64 % 0.0 in /  0 mm
20:28 20.0 °F /  -6.7 °C 13.2 °F /  -10.4 °C 1021.9 in /  34601.5 hPa WSW 7.4 mph /  11.9 km/h 7.4 mph /  11.9 km/h 65 % 0.0 in /  0 mm
20:33 19.9 °F /  -6.7 °C 13.3 °F /  -10.4 °C 1021.9 in /  34601.5 hPa SW 5.6 mph /  9 km/h 5.6 mph /  9 km/h 66 % 0.0 in /  0 mm
20:38 19.8 °F /  -6.8 °C 13.3 °F /  -10.4 °C 1021.9 in /  34601.5 hPa SW 5.6 mph /  9 km/h 5.6 mph /  9 km/h 66 % 0.0 in /  0 mm
20:43 19.7 °F /  -6.8 °C 13.4 °F /  -10.3 °C 1021.9 in /  34601.5 hPa SW 5.6 mph /  9 km/h 5.6 mph /  9 km/h 67 % 0.0 in /  0 mm
20:48 19.6 °F /  -6.9 °C 13.3 °F /  -10.4 °C 1022.9 in /  34635.4 hPa SW 5.0 mph /  8 km/h 5.0 mph /  8 km/h 67 % 0.0 in /  0 mm
20:53 19.6 °F /  -6.9 °C 13.3 °F /  -10.4 °C 1022.9 in /  34635.4 hPa WSW 3.9 mph /  6.3 km/h 3.9 mph /  6.3 km/h 67 % 0.0 in /  0 mm
20:58 19.5 °F /  -6.9 °C 13.4 °F /  -10.3 °C 1022.9 in /  34635.4 hPa WSW 3.7 mph /  6 km/h 3.7 mph /  6 km/h 68 % 0.0 in /  0 mm
21:03 19.5 °F /  -6.9 °C 13.4 °F /  -10.3 °C 1022.9 in /  34635.4 hPa SW 3.7 mph /  6 km/h 3.7 mph /  6 km/h 68 % 0.0 in /  0 mm
21:08 19.4 °F /  -7 °C 13.6 °F /  -10.2 °C 1022.9 in /  34635.4 hPa SW 3.7 mph /  6 km/h 3.7 mph /  6 km/h 69 % 0.0 in /  0 mm
21:13 19.3 °F /  -7.1 °C 13.4 °F /  -10.3 °C 1022.9 in /  34635.4 hPa WSW 3.7 mph /  6 km/h 3.7 mph /  6 km/h 69 % 0.0 in /  0 mm
21:18 19.3 °F /  -7.1 °C 13.4 °F /  -10.3 °C 1022.9 in /  34635.4 hPa WSW 3.7 mph /  6 km/h 3.7 mph /  6 km/h 69 % 0.0 in /  0 mm
21:23 19.2 °F /  -7.1 °C 13.6 °F /  -10.2 °C 1022.9 in /  34635.4 hPa SW 3.7 mph /  6 km/h 3.7 mph /  6 km/h 70 % 0.0 in /  0 mm
21:28 19.2 °F /  -7.1 °C 13.6 °F /  -10.2 °C 1022.9 in /  34635.4 hPa SW 3.7 mph /  6 km/h 3.7 mph /  6 km/h 70 % 0.0 in /  0 mm
21:33 19.2 °F /  -7.1 °C 13.6 °F /  -10.2 °C 1022.9 in /  34635.4 hPa WSW 2.3 mph /  3.7 km/h 2.3 mph /  3.7 km/h 70 % 0.0 in /  0 mm
21:38 19.1 °F /  -7.2 °C 13.7 °F /  -10.2 °C 1022.9 in /  34635.4 hPa Calm     71 % 0.0 in /  0 mm
21:43 19.1 °F /  -7.2 °C 13.7 °F /  -10.2 °C 1022.9 in /  34635.4 hPa Calm     71 % 0.0 in /  0 mm
21:48 19.0 °F /  -7.2 °C 13.6 °F /  -10.2 °C 1023.9 in /  34669.3 hPa Calm     71 % 0.0 in /  0 mm
21:53 18.9 °F /  -7.3 °C 13.7 °F /  -10.2 °C 1023.9 in /  34669.3 hPa Calm     72 % 0.0 in /  0 mm
21:58 18.8 °F /  -7.3 °C 13.7 °F /  -10.2 °C 1023.9 in /  34669.3 hPa Calm     72 % 0.0 in /  0 mm
22:03 18.8 °F /  -7.3 °C 13.8 °F /  -10.1 °C 1023.9 in /  34669.3 hPa Calm     73 % 0.0 in /  0 mm
22:08 18.8 °F /  -7.3 °C 13.8 °F /  -10.1 °C 1023.9 in /  34669.3 hPa Calm     73 % 0.0 in /  0 mm
22:13 18.8 °F /  -7.3 °C 13.8 °F /  -10.1 °C 1023.9 in /  34669.3 hPa Calm     73 % 0.0 in /  0 mm
22:18 18.7 °F /  -7.4 °C 13.8 °F /  -10.1 °C 1023.9 in /  34669.3 hPa Calm     73 % 0.0 in /  0 mm
22:23 18.6 °F /  -7.4 °C 13.9 °F /  -10.1 °C 1023.9 in /  34669.3 hPa Calm     74 % 0.0 in /  0 mm
22:28 18.6 °F /  -7.4 °C 13.9 °F /  -10.1 °C 1023.9 in /  34669.3 hPa Calm     74 % 0.0 in /  0 mm
22:33 18.6 °F /  -7.4 °C 13.9 °F /  -10.1 °C 1023.9 in /  34669.3 hPa Calm     74 % 0.0 in /  0 mm
22:38 18.5 °F /  -7.5 °C 13.8 °F /  -10.1 °C 1023.9 in /  34669.3 hPa Calm     74 % 0.0 in /  0 mm
22:43 18.4 °F /  -7.6 °C 13.7 °F /  -10.2 °C 1023.9 in /  34669.3 hPa Calm     74 % 0.0 in /  0 mm
22:48 18.4 °F /  -7.6 °C 13.9 °F /  -10.1 °C 1023.9 in /  34669.3 hPa Calm     75 % 0.0 in /  0 mm
22:53 18.4 °F /  -7.6 °C 13.9 °F /  -10.1 °C 1023.9 in /  34669.3 hPa Calm     75 % 0.0 in /  0 mm
22:58 18.3 °F /  -7.6 °C 13.8 °F /  -10.1 °C 1023.9 in /  34669.3 hPa Calm     75 % 0.0 in /  0 mm
23:03 18.2 °F /  -7.7 °C 13.9 °F /  -10.1 °C 1023.9 in /  34669.3 hPa Calm     76 % 0.0 in /  0 mm
23:08 18.2 °F /  -7.7 °C 13.9 °F /  -10.1 °C 1023.9 in /  34669.3 hPa Calm     76 % 0.0 in /  0 mm
23:13 18.2 °F /  -7.7 °C 13.9 °F /  -10.1 °C 1023.9 in /  34669.3 hPa Calm     76 % 0.0 in /  0 mm
23:18 18.2 °F /  -7.7 °C 13.7 °F /  -10.2 °C 1023.9 in /  34669.3 hPa West 1.9 mph /  3.1 km/h 1.9 mph /  3.1 km/h 75 % 0.0 in /  0 mm
23:23 18.2 °F /  -7.7 °C 13.9 °F /  -10.1 °C 1023.9 in /  34669.3 hPa Calm     76 % 0.0 in /  0 mm
23:28 18.2 °F /  -7.7 °C 13.9 °F /  -10.1 °C 1023.9 in /  34669.3 hPa Calm     76 % 0.0 in /  0 mm
23:33 18.2 °F /  -7.7 °C 13.9 °F /  -10.1 °C 1023.9 in /  34669.3 hPa Calm     76 % 0.0 in /  0 mm
23:38 18.1 °F /  -7.7 °C 14.0 °F /  -10 °C 1023.9 in /  34669.3 hPa Calm     77 % 0.0 in /  0 mm
23:43 18.0 °F /  -7.8 °C 13.9 °F /  -10.1 °C 1023.9 in /  34669.3 hPa Calm     77 % 0.0 in /  0 mm
23:48 18.0 °F /  -7.8 °C 13.9 °F /  -10.1 °C 1023.9 in /  34669.3 hPa Calm     77 % 0.0 in /  0 mm
23:53 17.8 °F /  -7.9 °C 13.7 °F /  -10.2 °C 1023.9 in /  34669.3 hPa Calm     77 % 0.0 in /  0 mm
23:58 17.8 °F /  -7.9 °C 13.7 °F /  -10.2 °C 1023.9 in /  34669.3 hPa Calm     77 % 0.0 in /  0 mm
Meteo Sesrovires
Elogis d' Weather Underground - 1.5 mb

Guio original per  Jim McMurry - jmcmurry@mwt.net Adaptat per a la plantilla per  Wim van der Kuil - Leuven-Template.eu

Trobareu la nostra informacio del temps tambe a:

Weather Underground

AWEKAS